Time;durP1;ratioP1;P1;durP2;ratioP2;P2;SDS_P1;SDS_P2;PMS_P1;PMS_P2;Temp;Humidity;BMP_temperature;BMP_pressure;BME280_temperature;BME280_humidity;BME280_pressure;Samples;Min_cycle;Max_cycle;Signal;HPM_P1;HPM_P2
2022/03/19 00:00:12;;;;;;;;;;;8.60;99.90;;;;;;5072544;28;19918;-63
2022/03/19 00:02:38;;;;;;;;;;;8.60;99.90;;;;;;5065834;28;19964;-63
2022/03/19 00:05:04;;;;;;;;;;;8.60;99.90;;;;;;5072248;28;19944;-62
2022/03/19 00:07:30;;;;;;;;;;;8.50;99.90;;;;;;5061647;28;20688;-63
2022/03/19 00:09:56;;;;;;;;;;;8.50;99.90;;;;;;5051019;28;20326;-62
2022/03/19 00:12:21;;;;;;;;;;;8.50;99.90;;;;;;5053887;28;19937;-61
2022/03/19 00:14:47;;;;;;;;;;;8.50;99.90;;;;;;5051092;28;19931;-63
2022/03/19 00:17:13;;;;;;;;;;;8.50;99.90;;;;;;5060476;28;20650;-61
2022/03/19 00:19:42;;;;;;;;;;;8.50;99.90;;;;;;5068507;28;19920;-62
2022/03/19 00:22:07;;;;;;;;;;;8.50;99.90;;;;;;5052046;28;19908;-61
2022/03/19 00:24:35;;;;;;;;;;;8.50;99.90;;;;;;5072758;28;19935;-62
2022/03/19 00:27:00;;;;;;;;;;;8.50;99.90;;;;;;5067449;28;19920;-63
2022/03/19 00:29:26;;;;;;;;;;;8.50;99.90;;;;;;5072913;28;19909;-62
2022/03/19 00:31:51;;;;;;;;;;;8.50;99.90;;;;;;5072572;28;19913;-62
2022/03/19 00:34:17;;;;;;;;;;;8.60;99.90;;;;;;5065424;28;19913;-62
2022/03/19 00:36:42;;;;;;;;;;;8.50;99.90;;;;;;5069970;28;19916;-63
2022/03/19 00:39:08;;;;;;;;;;;8.50;99.90;;;;;;5042504;28;19915;-62
2022/03/19 00:41:34;;;;;;;;;;;8.50;99.90;;;;;;5065881;28;19943;-62
2022/03/19 00:43:59;;;;;;;;;;;8.40;99.90;;;;;;5072299;28;19913;-62
2022/03/19 00:46:25;;;;;;;;;;;8.40;99.90;;;;;;5069888;28;19943;-62
2022/03/19 00:48:50;;;;;;;;;;;8.50;99.90;;;;;;5060005;28;20070;-63
2022/03/19 00:51:16;;;;;;;;;;;8.40;99.90;;;;;;5074131;28;19908;-62
2022/03/19 00:53:41;;;;;;;;;;;8.40;99.90;;;;;;5069312;28;19925;-63
2022/03/19 00:56:07;;;;;;;;;;;8.40;99.90;;;;;;5070602;28;19909;-63
2022/03/19 00:58:33;;;;;;;;;;;8.40;99.90;;;;;;5057631;28;19988;-62
2022/03/19 01:00:58;;;;;;;;;;;8.30;99.90;;;;;;5065617;28;19909;-62
2022/03/19 01:03:24;;;;;;;;;;;8.30;99.90;;;;;;5069191;28;19912;-62
2022/03/19 01:05:49;;;;;;;;;;;8.30;99.90;;;;;;5066708;28;19920;-62
2022/03/19 01:08:15;;;;;;;;;;;8.10;99.90;;;;;;5056373;28;19909;-62
2022/03/19 01:10:41;;;;;;;;;;;8.10;99.90;;;;;;5073061;28;19915;-62
2022/03/19 01:13:07;;;;;;;;;;;8.10;99.90;;;;;;5066089;28;20293;-63
2022/03/19 01:15:33;;;;;;;;;;;8.10;99.90;;;;;;5050127;28;19968;-63
2022/03/19 01:18:00;;;;;;;;;;;8.10;99.90;;;;;;5069713;28;19959;-62
2022/03/19 01:20:26;;;;;;;;;;;8.10;99.90;;;;;;5045680;28;19909;-61
2022/03/19 01:22:52;;;;;;;;;;;8.00;99.90;;;;;;5063555;28;20098;-62
2022/03/19 01:25:18;;;;;;;;;;;8.00;99.90;;;;;;5067787;28;19913;-62
2022/03/19 01:27:44;;;;;;;;;;;8.00;99.90;;;;;;5071792;28;19916;-62
2022/03/19 01:30:13;;;;;;;;;;;8.00;99.90;;;;;;5071011;28;21587;-62
2022/03/19 01:32:40;;;;;;;;;;;8.00;99.90;;;;;;5060144;28;19932;-64
2022/03/19 01:35:05;;;;;;;;;;;8.00;99.90;;;;;;5071829;28;19964;-62
2022/03/19 01:37:31;;;;;;;;;;;8.00;99.90;;;;;;5065936;28;19909;-64
2022/03/19 01:39:57;;;;;;;;;;;8.00;99.90;;;;;;5052572;28;19908;-62
2022/03/19 01:42:22;;;;;;;;;;;7.90;99.90;;;;;;5066264;28;20409;-61
2022/03/19 01:44:48;;;;;;;;;;;7.80;99.90;;;;;;5065439;28;19913;-60
2022/03/19 01:47:13;;;;;;;;;;;7.90;99.90;;;;;;5059794;28;19913;-62
2022/03/19 01:49:39;;;;;;;;;;;7.80;99.90;;;;;;5061693;28;20320;-62
2022/03/19 01:52:05;;;;;;;;;;;7.80;99.90;;;;;;5068228;28;19909;-63
2022/03/19 01:54:35;;;;;;;;;;;7.70;99.90;;;;;;5063817;28;19917;-63
2022/03/19 01:57:01;;;;;;;;;;;7.70;99.90;;;;;;5064511;28;19940;-60
2022/03/19 01:59:30;;;;;;;;;;;7.70;99.90;;;;;;5064745;28;19909;-62
2022/03/19 02:01:56;;;;;;;;;;;7.60;99.90;;;;;;5061238;28;19984;-62
2022/03/19 02:04:21;;;;;;;;;;;7.70;99.90;;;;;;5072092;28;20429;-61
2022/03/19 02:06:48;;;;;;;;;;;7.70;99.90;;;;;;5068627;28;19924;-62
2022/03/19 02:09:14;;;;;;;;;;;7.60;99.90;;;;;;5066346;28;19920;-62
2022/03/19 02:11:39;;;;;;;;;;;7.70;99.90;;;;;;5062128;28;19915;-63
2022/03/19 02:14:05;;;;;;;;;;;7.60;99.90;;;;;;5066139;28;19937;-62
2022/03/19 02:16:30;;;;;;;;;;;7.60;99.90;;;;;;5053678;28;19909;-61
2022/03/19 02:18:59;;;;;;;;;;;7.50;99.90;;;;;;5060893;28;19970;-61
2022/03/19 02:21:25;;;;;;;;;;;7.50;99.90;;;;;;5071036;28;19919;-61
2022/03/19 02:26:45;;;;;;;;;;;7.60;99.90;;;;;;5060942;28;19936;-62
2022/03/19 02:29:11;;;;;;;;;;;7.70;99.90;;;;;;5056753;28;19908;-62
2022/03/19 02:31:40;;;;;;;;;;;7.70;99.90;;;;;;5064800;28;19960;-62
2022/03/19 02:34:08;;;;;;;;;;;7.80;99.90;;;;;;5071860;28;19909;-61
2022/03/19 02:36:37;;;;;;;;;;;7.70;99.90;;;;;;5063229;28;19909;-62
2022/03/19 02:39:16;;;;;;;;;;;7.70;99.90;;;;;;5067568;28;20239;-63
2022/03/19 02:41:46;;;;;;;;;;;7.70;99.90;;;;;;5067568;28;19916;-62
2022/03/19 02:44:12;;;;;;;;;;;7.70;99.90;;;;;;5062921;28;20259;-62
2022/03/19 02:46:43;;;;;;;;;;;7.70;99.90;;;;;;5039255;28;19913;-62
2022/03/19 02:49:08;;;;;;;;;;;7.80;99.90;;;;;;5067983;28;19908;-63
2022/03/19 02:51:35;;;;;;;;;;;7.90;99.90;;;;;;5058055;28;19913;-62
2022/03/19 02:54:04;;;;;;;;;;;8.00;99.90;;;;;;5063464;28;19932;-62
2022/03/19 02:56:34;;;;;;;;;;;8.00;99.90;;;;;;5055118;28;19917;-62
2022/03/19 02:59:07;;;;;;;;;;;8.10;99.90;;;;;;5055086;28;19909;-62
2022/03/19 03:01:33;;;;;;;;;;;8.10;99.90;;;;;;5055212;28;20277;-62
2022/03/19 03:03:58;;;;;;;;;;;8.10;99.90;;;;;;5071309;28;19913;-61
2022/03/19 03:06:24;;;;;;;;;;;8.10;99.90;;;;;;5056769;28;19919;-62
2022/03/19 03:08:49;;;;;;;;;;;8.00;99.90;;;;;;5061848;28;19909;-63
2022/03/19 03:11:15;;;;;;;;;;;8.00;99.90;;;;;;5062927;28;19932;-64
2022/03/19 03:13:41;;;;;;;;;;;8.00;99.90;;;;;;5056332;28;19935;-62
2022/03/19 03:16:07;;;;;;;;;;;8.00;99.90;;;;;;5065621;28;19908;-61
2022/03/19 03:18:32;;;;;;;;;;;8.00;99.90;;;;;;5067735;28;19940;-62
2022/03/19 03:20:59;;;;;;;;;;;7.90;99.90;;;;;;5061466;28;19909;-63
2022/03/19 03:23:26;;;;;;;;;;;8.00;99.90;;;;;;5074326;28;19912;-61
2022/03/19 03:25:54;;;;;;;;;;;8.00;99.90;;;;;;5063155;28;20125;-62
2022/03/19 03:28:20;;;;;;;;;;;7.90;99.90;;;;;;5068783;28;19919;-61
2022/03/19 03:30:46;;;;;;;;;;;7.80;99.90;;;;;;5067932;28;19893;-62
2022/03/19 03:33:11;;;;;;;;;;;7.80;99.90;;;;;;5073112;28;19909;-61
2022/03/19 03:35:37;;;;;;;;;;;7.90;99.90;;;;;;5065857;28;19909;-63
2022/03/19 03:38:02;;;;;;;;;;;7.80;99.90;;;;;;5065764;28;19931;-60
2022/03/19 03:40:28;;;;;;;;;;;7.80;99.90;;;;;;5071595;28;19912;-61
2022/03/19 03:42:54;;;;;;;;;;;7.80;99.90;;;;;;5062274;28;19913;-62
2022/03/19 03:45:20;;;;;;;;;;;7.80;99.90;;;;;;5066259;28;19913;-62
2022/03/19 03:47:47;;;;;;;;;;;7.80;99.90;;;;;;5047022;28;20430;-60
2022/03/19 03:50:13;;;;;;;;;;;7.70;99.90;;;;;;5059601;28;19913;-61
2022/03/19 03:52:38;;;;;;;;;;;7.70;99.90;;;;;;5069564;28;19944;-61
2022/03/19 03:55:06;;;;;;;;;;;7.70;99.90;;;;;;5054893;28;19905;-62
2022/03/19 03:57:37;;;;;;;;;;;7.70;99.90;;;;;;5065432;28;20188;-64
2022/03/19 04:00:04;;;;;;;;;;;7.80;99.90;;;;;;5051728;28;19909;-61
2022/03/19 04:02:29;;;;;;;;;;;7.80;99.90;;;;;;5048157;28;19913;-61
2022/03/19 04:04:55;;;;;;;;;;;7.80;99.90;;;;;;5072882;28;19924;-62
2022/03/19 04:07:21;;;;;;;;;;;7.90;99.90;;;;;;5054031;28;19944;-61
2022/03/19 04:09:47;;;;;;;;;;;7.80;99.90;;;;;;5072420;28;20281;-62
2022/03/19 04:12:14;;;;;;;;;;;7.90;99.90;;;;;;5068220;28;19908;-61
2022/03/19 04:14:40;;;;;;;;;;;7.80;99.90;;;;;;5062413;28;20035;-61
2022/03/19 04:17:06;;;;;;;;;;;7.70;99.90;;;;;;5054024;28;19908;-63
2022/03/19 04:19:32;;;;;;;;;;;7.70;99.90;;;;;;5067748;28;19915;-63
2022/03/19 04:21:58;;;;;;;;;;;7.80;99.90;;;;;;5070698;28;20011;-61
2022/03/19 04:24:23;;;;;;;;;;;7.70;99.90;;;;;;5073290;28;19971;-61
2022/03/19 04:26:49;;;;;;;;;;;7.60;99.90;;;;;;5072853;28;19912;-61
2022/03/19 04:29:14;;;;;;;;;;;7.60;99.90;;;;;;5066016;28;19909;-63
2022/03/19 04:31:40;;;;;;;;;;;7.60;99.90;;;;;;5071477;28;19920;-61
2022/03/19 04:34:05;;;;;;;;;;;7.50;99.90;;;;;;5065600;28;19909;-62
2022/03/19 04:36:32;;;;;;;;;;;7.40;99.90;;;;;;5054067;28;19932;-61
2022/03/19 04:39:02;;;;;;;;;;;7.40;99.90;;;;;;5058706;28;19909;-62
2022/03/19 04:41:28;;;;;;;;;;;7.30;99.90;;;;;;5069165;28;19917;-62
2022/03/19 04:43:55;;;;;;;;;;;7.30;99.90;;;;;;5064181;28;19980;-62
2022/03/19 04:46:21;;;;;;;;;;;7.20;99.90;;;;;;5072557;28;19975;-62
2022/03/19 04:48:47;;;;;;;;;;;7.20;99.90;;;;;;5073620;28;19897;-61
2022/03/19 04:51:13;;;;;;;;;;;7.10;99.90;;;;;;5061331;28;19909;-61
2022/03/19 04:53:40;;;;;;;;;;;7.10;99.90;;;;;;5063053;28;19979;-61
2022/03/19 04:56:06;;;;;;;;;;;7.10;99.90;;;;;;5071300;28;19943;-62
2022/03/19 04:58:32;;;;;;;;;;;7.00;99.90;;;;;;5059832;28;19908;-62
2022/03/19 05:01:00;;;;;;;;;;;7.00;99.90;;;;;;5065811;28;19932;-62
2022/03/19 05:03:26;;;;;;;;;;;7.00;99.90;;;;;;5067471;28;19913;-63
2022/03/19 05:05:52;;;;;;;;;;;7.00;99.90;;;;;;5052831;28;19944;-63
2022/03/19 05:08:18;;;;;;;;;;;6.90;99.90;;;;;;5064558;28;19932;-63
2022/03/19 05:13:28;;;;;;;;;;;6.90;99.90;;;;;;5061833;28;20338;-63
2022/03/19 05:15:54;;;;;;;;;;;6.80;99.90;;;;;;5068932;28;19908;-62
2022/03/19 05:18:19;;;;;;;;;;;6.80;99.90;;;;;;5072207;28;19909;-61
2022/03/19 05:20:45;;;;;;;;;;;6.70;99.90;;;;;;5069734;28;20015;-62
2022/03/19 05:23:11;;;;;;;;;;;6.70;99.90;;;;;;5065703;28;19966;-61
2022/03/19 05:25:38;;;;;;;;;;;6.60;99.90;;;;;;5034547;28;19917;-61
2022/03/19 05:28:03;;;;;;;;;;;6.60;99.90;;;;;;5070662;28;19938;-62
2022/03/19 05:30:30;;;;;;;;;;;6.60;99.90;;;;;;5067011;28;19908;-62
2022/03/19 05:32:56;;;;;;;;;;;6.60;99.90;;;;;;5062797;28;20028;-62
2022/03/19 05:35:21;;;;;;;;;;;6.60;99.90;;;;;;5058273;28;19918;-62
2022/03/19 05:37:47;;;;;;;;;;;6.60;99.90;;;;;;5049874;28;19908;-62
2022/03/19 05:40:13;;;;;;;;;;;6.50;99.90;;;;;;5064502;28;19987;-62
2022/03/19 05:42:38;;;;;;;;;;;6.50;99.90;;;;;;5063960;28;19908;-61
2022/03/19 05:45:04;;;;;;;;;;;6.50;99.90;;;;;;5067439;28;19972;-62
2022/03/19 05:47:30;;;;;;;;;;;6.40;99.90;;;;;;5051247;28;19908;-63
2022/03/19 05:49:55;;;;;;;;;;;6.30;99.90;;;;;;5069872;28;19897;-63
2022/03/19 05:52:21;;;;;;;;;;;6.30;99.90;;;;;;5066662;28;20399;-61
2022/03/19 05:54:46;;;;;;;;;;;6.20;99.90;;;;;;5065074;28;19921;-62
2022/03/19 05:57:12;;;;;;;;;;;6.20;99.90;;;;;;5068731;28;19908;-63
2022/03/19 05:59:38;;;;;;;;;;;6.20;99.90;;;;;;5067849;28;19913;-62
2022/03/19 06:02:05;;;;;;;;;;;6.20;99.90;;;;;;5061963;28;20062;-62
2022/03/19 06:04:31;;;;;;;;;;;6.20;99.90;;;;;;5062825;28;19913;-62
2022/03/19 06:06:57;;;;;;;;;;;6.20;99.90;;;;;;5061446;28;19920;-61
2022/03/19 06:09:22;;;;;;;;;;;6.20;99.90;;;;;;5064925;28;19944;-62
2022/03/19 06:11:48;;;;;;;;;;;6.20;99.90;;;;;;5068727;28;19915;-67
2022/03/19 06:14:13;;;;;;;;;;;6.20;99.90;;;;;;5069106;28;19931;-62
2022/03/19 06:16:39;;;;;;;;;;;6.20;99.90;;;;;;5068397;28;19919;-61
2022/03/19 06:19:05;;;;;;;;;;;6.20;99.90;;;;;;5054972;28;19919;-62
2022/03/19 06:21:30;;;;;;;;;;;6.10;99.90;;;;;;5063291;28;19958;-61
2022/03/19 06:23:56;;;;;;;;;;;6.20;99.90;;;;;;5056489;28;19920;-64
2022/03/19 06:26:23;;;;;;;;;;;6.20;99.90;;;;;;5054623;28;19929;-61
2022/03/19 06:28:49;;;;;;;;;;;6.20;99.90;;;;;;5048266;28;19909;-61
2022/03/19 06:31:14;;;;;;;;;;;6.10;99.90;;;;;;5062923;28;19915;-62
2022/03/19 06:33:41;;;;;;;;;;;6.20;99.90;;;;;;5051451;28;19940;-63
2022/03/19 06:38:51;;;;;;;;;;;6.20;99.90;;;;;;5065929;28;20431;-62
2022/03/19 06:41:21;;;;;;;;;;;6.20;99.90;;;;;;5057794;28;19909;-63
2022/03/19 06:43:47;;;;;;;;;;;6.20;99.90;;;;;;5068944;28;19920;-62
2022/03/19 06:46:13;;;;;;;;;;;6.30;99.90;;;;;;5063083;28;19912;-65
2022/03/19 06:48:38;;;;;;;;;;;6.30;99.90;;;;;;5054958;28;19913;-62
2022/03/19 06:51:04;;;;;;;;;;;6.30;99.90;;;;;;5068754;28;19944;-63
2022/03/19 06:53:30;;;;;;;;;;;6.30;99.90;;;;;;5048612;28;19909;-62
2022/03/19 06:55:55;;;;;;;;;;;6.30;99.90;;;;;;5053280;28;19917;-62
2022/03/19 06:58:21;;;;;;;;;;;6.30;99.90;;;;;;5052469;28;19944;-63
2022/03/19 07:00:47;;;;;;;;;;;6.30;99.90;;;;;;5059578;28;19953;-62
2022/03/19 07:03:12;;;;;;;;;;;6.30;99.90;;;;;;5061493;28;19912;-62
2022/03/19 07:05:38;;;;;;;;;;;6.30;99.90;;;;;;5056286;28;19913;-61
2022/03/19 07:08:07;;;;;;;;;;;6.30;99.90;;;;;;5056807;28;19947;-62
2022/03/19 07:10:34;;;;;;;;;;;6.30;99.90;;;;;;5050044;28;19938;-61
2022/03/19 07:13:00;;;;;;;;;;;6.30;99.90;;;;;;5057711;28;19909;-62
2022/03/19 07:15:29;;;;;;;;;;;6.30;99.90;;;;;;5055101;28;19916;-62
2022/03/19 07:18:00;;;;;;;;;;;6.30;99.90;;;;;;5057248;28;19909;-62
2022/03/19 07:20:25;;;;;;;;;;;6.40;99.90;;;;;;5058514;28;19995;-62
2022/03/19 07:22:55;;;;;;;;;;;6.40;99.90;;;;;;5047452;28;19914;-63
2022/03/19 07:25:22;;;;;;;;;;;6.40;99.90;;;;;;5068384;28;19940;-63
2022/03/19 07:27:49;;;;;;;;;;;6.50;99.90;;;;;;5065469;28;19916;-62
2022/03/19 07:30:14;;;;;;;;;;;6.60;99.90;;;;;;5072281;28;20015;-63
2022/03/19 07:32:40;;;;;;;;;;;6.60;99.90;;;;;;5063762;28;19916;-62
2022/03/19 07:35:06;;;;;;;;;;;6.70;99.90;;;;;;5064842;28;20413;-64
2022/03/19 07:37:32;;;;;;;;;;;6.80;99.90;;;;;;5068823;28;19956;-62
2022/03/19 07:39:58;;;;;;;;;;;6.80;99.90;;;;;;5065401;28;19916;-63
2022/03/19 07:42:24;;;;;;;;;;;6.90;99.90;;;;;;5062775;28;19909;-60
2022/03/19 07:44:50;;;;;;;;;;;7.00;99.90;;;;;;5058130;28;19940;-62
2022/03/19 07:47:16;;;;;;;;;;;7.00;99.90;;;;;;5061065;28;19912;-61
2022/03/19 07:49:42;;;;;;;;;;;7.20;99.90;;;;;;5061752;28;19999;-62
2022/03/19 07:52:09;;;;;;;;;;;7.20;99.90;;;;;;5062789;28;19893;-62
2022/03/19 07:54:34;;;;;;;;;;;7.40;99.90;;;;;;5039361;28;19913;-62
2022/03/19 07:57:00;;;;;;;;;;;7.50;99.90;;;;;;5048274;28;19943;-61
2022/03/19 07:59:27;;;;;;;;;;;7.50;99.90;;;;;;5064368;28;19908;-62
2022/03/19 08:01:53;;;;;;;;;;;7.60;99.90;;;;;;5061409;28;20361;-62
2022/03/19 08:04:19;;;;;;;;;;;7.70;99.90;;;;;;5058427;28;19912;-61
2022/03/19 08:06:44;;;;;;;;;;;7.70;99.90;;;;;;5059703;28;19920;-63
2022/03/19 08:09:10;;;;;;;;;;;7.80;99.90;;;;;;5065362;28;19896;-63
2022/03/19 08:11:36;;;;;;;;;;;8.00;99.90;;;;;;5061806;28;19912;-62
2022/03/19 08:14:02;;;;;;;;;;;8.10;99.90;;;;;;5063964;28;19909;-65
2022/03/19 08:16:28;;;;;;;;;;;8.20;99.90;;;;;;5063699;28;19909;-62
2022/03/19 08:18:54;;;;;;;;;;;8.30;99.90;;;;;;5062847;28;20393;-61
2022/03/19 08:21:19;;;;;;;;;;;8.30;99.90;;;;;;5060734;28;19932;-62
2022/03/19 08:23:48;;;;;;;;;;;8.50;99.90;;;;;;5062321;28;19980;-62
2022/03/19 08:26:14;;;;;;;;;;;8.60;99.90;;;;;;5073359;28;19956;-63
2022/03/19 08:28:40;;;;;;;;;;;8.70;99.90;;;;;;5071866;28;19958;-62
2022/03/19 08:31:05;;;;;;;;;;;8.70;99.90;;;;;;5070190;28;19909;-61
2022/03/19 08:33:31;;;;;;;;;;;9.00;99.90;;;;;;5073567;28;19893;-61
2022/03/19 08:35:57;;;;;;;;;;;9.10;99.90;;;;;;5056627;28;19999;-65
2022/03/19 08:41:06;;;;;;;;;;;9.40;99.90;;;;;;5055608;28;19919;-64
2022/03/19 08:43:32;;;;;;;;;;;9.50;99.90;;;;;;5044362;28;19917;-63
2022/03/19 08:45:58;;;;;;;;;;;9.60;99.90;;;;;;5068618;28;19912;-62
2022/03/19 08:48:23;;;;;;;;;;;9.80;99.90;;;;;;5068294;28;19968;-62
2022/03/19 08:50:49;;;;;;;;;;;9.90;99.90;;;;;;5061575;28;20320;-61
2022/03/19 08:53:15;;;;;;;;;;;10.00;99.90;;;;;;5061246;28;19940;-62
2022/03/19 08:55:40;;;;;;;;;;;10.20;99.90;;;;;;5040140;28;19960;-63
2022/03/19 08:58:06;;;;;;;;;;;10.40;99.90;;;;;;5060615;28;19944;-62
2022/03/19 09:00:32;;;;;;;;;;;10.50;99.90;;;;;;5072817;28;19920;-64
2022/03/19 09:02:57;;;;;;;;;;;10.50;99.90;;;;;;5052636;28;19907;-63
2022/03/19 09:05:23;;;;;;;;;;;10.60;99.90;;;;;;5072723;28;19904;-64
2022/03/19 09:07:49;;;;;;;;;;;10.80;99.90;;;;;;5069546;28;19913;-64
2022/03/19 09:10:15;;;;;;;;;;;10.80;99.90;;;;;;5045955;28;19901;-64
2022/03/19 09:12:41;;;;;;;;;;;10.90;99.90;;;;;;5065904;28;19908;-63
2022/03/19 09:15:08;;;;;;;;;;;10.90;99.90;;;;;;5077267;28;19908;-64
2022/03/19 09:17:34;;;;;;;;;;;11.00;99.90;;;;;;5070862;28;19897;-62
2022/03/19 09:20:00;;;;;;;;;;;11.10;99.90;;;;;;5074211;28;19916;-63
2022/03/19 09:22:26;;;;;;;;;;;11.20;99.90;;;;;;5050594;28;19901;-62
2022/03/19 09:24:51;;;;;;;;;;;11.10;99.90;;;;;;5069867;28;20673;-63
2022/03/19 09:27:17;;;;;;;;;;;11.20;99.90;;;;;;5072899;28;19908;-63
2022/03/19 09:29:43;;;;;;;;;;;11.30;99.90;;;;;;5063800;28;19911;-66
2022/03/19 09:32:12;;;;;;;;;;;11.40;99.90;;;;;;5076908;28;19913;-62
2022/03/19 09:34:38;;;;;;;;;;;11.40;99.90;;;;;;5052461;28;19964;-64
2022/03/19 09:37:03;;;;;;;;;;;11.50;99.90;;;;;;5069848;28;19996;-63
2022/03/19 09:39:29;;;;;;;;;;;11.50;99.90;;;;;;5048100;28;19966;-63
2022/03/19 09:41:55;;;;;;;;;;;11.70;99.90;;;;;;5062791;28;20283;-63
2022/03/19 09:44:27;;;;;;;;;;;11.70;99.90;;;;;;5045827;28;20352;-64
2022/03/19 09:46:53;;;;;;;;;;;11.80;99.90;;;;;;5068815;28;19920;-64
2022/03/19 09:49:19;;;;;;;;;;;11.90;99.90;;;;;;5059508;28;19916;-62
2022/03/19 09:51:50;;;;;;;;;;;12.00;99.90;;;;;;5034549;28;19971;-62
2022/03/19 09:54:16;;;;;;;;;;;12.00;99.90;;;;;;5054947;28;20242;-62
2022/03/19 09:56:41;;;;;;;;;;;12.00;99.90;;;;;;5041581;28;19924;-61
2022/03/19 09:59:07;;;;;;;;;;;12.10;99.90;;;;;;5039851;28;20354;-63
2022/03/19 10:01:36;;;;;;;;;;;12.10;99.90;;;;;;5051602;28;19916;-62
2022/03/19 10:04:03;;;;;;;;;;;12.20;99.90;;;;;;5042319;28;19913;-62
2022/03/19 10:09:20;;;;;;;;;;;12.50;99.90;;;;;;5061987;28;19920;-62
2022/03/19 10:11:50;;;;;;;;;;;12.50;99.90;;;;;;5041665;28;19905;-62
2022/03/19 10:14:23;;;;;;;;;;;12.70;99.90;;;;;;5062287;28;19931;-62
2022/03/19 10:16:51;;;;;;;;;;;12.70;99.90;;;;;;5037010;28;19909;-64
2022/03/19 10:19:17;;;;;;;;;;;12.90;99.90;;;;;;5038330;28;19915;-63
2022/03/19 10:21:42;;;;;;;;;;;12.80;99.90;;;;;;5051694;28;20303;-62
2022/03/19 10:24:19;;;;;;;;;;;12.80;99.90;;;;;;5051599;28;19912;-63
2022/03/19 10:26:46;;;;;;;;;;;13.00;99.90;;;;;;5055875;28;19912;-62
2022/03/19 10:29:12;;;;;;;;;;;13.00;99.90;;;;;;5050524;28;19974;-62
2022/03/19 10:31:39;;;;;;;;;;;13.00;99.90;;;;;;5057682;28;19913;-64
2022/03/19 10:34:05;;;;;;;;;;;13.00;99.90;;;;;;5050914;28;19912;-61
2022/03/19 10:36:35;;;;;;;;;;;13.10;99.90;;;;;;5047483;28;19951;-64
2022/03/19 10:39:05;;;;;;;;;;;13.10;99.90;;;;;;5040456;28;19916;-62
2022/03/19 10:41:34;;;;;;;;;;;13.10;99.90;;;;;;5056456;28;20011;-62
2022/03/19 10:44:08;;;;;;;;;;;13.20;99.90;;;;;;5050189;28;19970;-61
2022/03/19 10:46:34;;;;;;;;;;;13.30;99.50;;;;;;5032321;28;19917;-62
2022/03/19 10:49:00;;;;;;;;;;;13.40;98.80;;;;;;5042814;28;19917;-62
2022/03/19 10:51:29;;;;;;;;;;;13.40;99.10;;;;;;5057942;28;19920;-62
2022/03/19 10:53:55;;;;;;;;;;;13.50;99.00;;;;;;5055348;28;19936;-62
2022/03/19 10:56:21;;;;;;;;;;;13.50;98.20;;;;;;5043341;28;20047;-62
2022/03/19 10:58:47;;;;;;;;;;;13.60;98.80;;;;;;5047158;28;19909;-63
2022/03/19 11:01:14;;;;;;;;;;;13.70;97.90;;;;;;5038794;28;19915;-64
2022/03/19 11:03:40;;;;;;;;;;;13.70;98.00;;;;;;5051164;28;19936;-61
2022/03/19 11:06:06;;;;;;;;;;;13.80;98.20;;;;;;5050195;28;20000;-62
2022/03/19 11:08:38;;;;;;;;;;;13.80;97.30;;;;;;5042170;28;19909;-61
2022/03/19 11:11:09;;;;;;;;;;;13.80;97.50;;;;;;5057215;28;20364;-63
2022/03/19 11:13:37;;;;;;;;;;;13.90;97.10;;;;;;5044448;28;19944;-62
2022/03/19 11:16:03;;;;;;;;;;;13.90;97.10;;;;;;5053705;28;19908;-63
2022/03/19 11:18:29;;;;;;;;;;;14.00;97.20;;;;;;5035335;28;19944;-64
2022/03/19 11:20:58;;;;;;;;;;;14.10;97.00;;;;;;5037812;28;20036;-62
2022/03/19 11:23:26;;;;;;;;;;;14.10;96.20;;;;;;5052857;28;20011;-62
2022/03/19 11:25:54;;;;;;;;;;;14.20;96.30;;;;;;5061340;28;20051;-63
2022/03/19 11:28:20;;;;;;;;;;;14.20;96.70;;;;;;5029814;28;20278;-63
2022/03/19 11:31:00;;;;;;;;;;;14.20;96.30;;;;;;5058048;28;19908;-62
2022/03/19 11:33:27;;;;;;;;;;;14.20;96.10;;;;;;5058379;28;20250;-63
2022/03/19 11:35:53;;;;;;;;;;;14.20;96.90;;;;;;5061597;28;19909;-63
2022/03/19 11:38:20;;;;;;;;;;;14.20;96.50;;;;;;5065419;28;19913;-66
2022/03/19 11:40:47;;;;;;;;;;;14.20;96.50;;;;;;5055490;28;19900;-63
2022/03/19 11:43:28;;;;;;;;;;;14.40;96.10;;;;;;5068218;28;19921;-63
2022/03/19 11:45:55;;;;;;;;;;;14.40;96.20;;;;;;5074035;28;19913;-63
2022/03/19 11:48:36;;;;;;;;;;;14.40;95.60;;;;;;5072996;28;19901;-61
2022/03/19 11:51:17;;;;;;;;;;;14.50;96.00;;;;;;5066630;28;19917;-65
2022/03/19 11:54:03;;;;;;;;;;;14.50;95.50;;;;;;5068611;28;19919;-64
2022/03/19 11:56:41;;;;;;;;;;;14.60;94.90;;;;;;5067297;28;19909;-63
2022/03/19 11:59:16;;;;;;;;;;;14.70;95.20;;;;;;5075244;28;19901;-64
2022/03/19 12:01:48;;;;;;;;;;;14.70;95.20;;;;;;5069081;28;20365;-63
2022/03/19 12:04:14;;;;;;;;;;;14.80;94.40;;;;;;5048751;28;20341;-63
2022/03/19 12:06:49;;;;;;;;;;;14.90;94.30;;;;;;5050336;28;20266;-63
2022/03/19 12:09:15;;;;;;;;;;;14.90;94.70;;;;;;5032360;28;20118;-62
2022/03/19 12:11:40;;;;;;;;;;;15.10;94.10;;;;;;5061089;28;20389;-64
2022/03/19 12:14:15;;;;;;;;;;;15.10;93.50;;;;;;5047100;28;19913;-62
2022/03/19 12:16:41;;;;;;;;;;;15.10;92.90;;;;;;5049872;28;19908;-62
2022/03/19 12:19:08;;;;;;;;;;;15.10;92.50;;;;;;5069245;28;19955;-62
2022/03/19 12:21:38;;;;;;;;;;;15.10;93.00;;;;;;5054437;28;19956;-63
2022/03/19 12:24:15;;;;;;;;;;;15.10;92.40;;;;;;5050549;28;19913;-62
2022/03/19 12:26:45;;;;;;;;;;;15.10;92.70;;;;;;5073250;28;19917;-63
2022/03/19 12:29:12;;;;;;;;;;;15.20;92.00;;;;;;5043367;28;19969;-65
2022/03/19 12:31:41;;;;;;;;;;;15.30;91.90;;;;;;5064973;28;19913;-63
2022/03/19 12:34:12;;;;;;;;;;;15.40;92.00;;;;;;5068857;28;19924;-62
2022/03/19 12:36:38;;;;;;;;;;;15.50;92.10;;;;;;5060812;28;19901;-65
2022/03/19 12:39:04;;;;;;;;;;;15.50;91.60;;;;;;5064328;28;19940;-62
2022/03/19 12:41:33;;;;;;;;;;;15.50;91.20;;;;;;5062268;28;19931;-65
2022/03/19 12:44:04;;;;;;;;;;;15.40;91.70;;;;;;5062709;28;19916;-62
2022/03/19 12:46:34;;;;;;;;;;;15.50;91.80;;;;;;5040891;28;19913;-63
2022/03/19 12:49:00;;;;;;;;;;;15.50;91.30;;;;;;5037895;28;19916;-63
2022/03/19 12:51:26;;;;;;;;;;;15.60;90.90;;;;;;5054307;28;19920;-63
2022/03/19 12:53:52;;;;;;;;;;;15.60;91.00;;;;;;5067375;28;19909;-64
2022/03/19 12:56:19;;;;;;;;;;;15.60;89.80;;;;;;5063617;28;19924;-63
2022/03/19 12:58:46;;;;;;;;;;;15.60;90.90;;;;;;5061553;28;19935;-61
2022/03/19 13:01:16;;;;;;;;;;;15.60;90.40;;;;;;5063866;28;19904;-63
2022/03/19 13:03:41;;;;;;;;;;;15.80;90.00;;;;;;5058050;28;19921;-62
2022/03/19 13:06:08;;;;;;;;;;;15.90;90.10;;;;;;5061509;28;19939;-62
2022/03/19 13:08:46;;;;;;;;;;;15.90;90.20;;;;;;5063292;28;19909;-63
2022/03/19 13:11:14;;;;;;;;;;;15.90;90.40;;;;;;5065043;28;19916;-63
2022/03/19 13:13:44;;;;;;;;;;;15.90;90.20;;;;;;5060725;28;19962;-63
2022/03/19 13:16:10;;;;;;;;;;;15.80;89.00;;;;;;5048339;28;19909;-62
2022/03/19 13:18:37;;;;;;;;;;;16.00;87.80;;;;;;5063776;28;19915;-63
2022/03/19 13:21:03;;;;;;;;;;;16.00;87.20;;;;;;5065544;28;19909;-61
2022/03/19 13:23:29;;;;;;;;;;;16.10;88.00;;;;;;5051447;28;19920;-63
2022/03/19 13:25:55;;;;;;;;;;;16.10;88.20;;;;;;5043335;28;19993;-62
2022/03/19 13:28:20;;;;;;;;;;;16.10;86.60;;;;;;5049008;28;19916;-63
2022/03/19 13:30:52;;;;;;;;;;;16.10;86.80;;;;;;5046485;28;19905;-63
2022/03/19 13:33:18;;;;;;;;;;;16.10;87.30;;;;;;5063664;28;19905;-64
2022/03/19 13:35:47;;;;;;;;;;;16.10;88.30;;;;;;5065188;28;19931;-64
2022/03/19 13:38:16;;;;;;;;;;;16.10;86.90;;;;;;5059680;28;20139;-64
2022/03/19 13:40:43;;;;;;;;;;;16.10;86.40;;;;;;5048414;28;20278;-63
2022/03/19 13:43:08;;;;;;;;;;;16.20;86.20;;;;;;5057070;28;19963;-62
2022/03/19 13:45:34;;;;;;;;;;;16.20;84.70;;;;;;5060048;28;19912;-64
2022/03/19 13:48:07;;;;;;;;;;;16.30;84.10;;;;;;5044903;28;19909;-63
2022/03/19 13:50:36;;;;;;;;;;;16.40;83.90;;;;;;5059528;28;19968;-63
2022/03/19 13:53:02;;;;;;;;;;;16.30;83.80;;;;;;5054942;28;19915;-64
2022/03/19 13:55:28;;;;;;;;;;;16.40;83.40;;;;;;5045005;28;19964;-62
2022/03/19 13:57:56;;;;;;;;;;;16.40;83.00;;;;;;5044297;28;19951;-62
2022/03/19 14:00:23;;;;;;;;;;;16.40;82.50;;;;;;5046240;28;19916;-62
2022/03/19 14:02:55;;;;;;;;;;;16.30;81.80;;;;;;5044745;28;19916;-63
2022/03/19 14:05:21;;;;;;;;;;;16.40;81.50;;;;;;5050766;28;19939;-62
2022/03/19 14:07:47;;;;;;;;;;;16.50;80.50;;;;;;5032693;28;20005;-63
2022/03/19 14:10:14;;;;;;;;;;;16.50;79.90;;;;;;5064925;28;19912;-62
2022/03/19 14:12:43;;;;;;;;;;;16.60;79.60;;;;;;5056145;28;19933;-63
2022/03/19 14:15:14;;;;;;;;;;;16.80;78.30;;;;;;5059769;28;19909;-61
2022/03/19 14:17:44;;;;;;;;;;;16.80;79.90;;;;;;5061635;28;19909;-63
2022/03/19 14:20:10;;;;;;;;;;;16.70;78.90;;;;;;5062448;28;19909;-62
2022/03/19 14:22:36;;;;;;;;;;;16.70;79.10;;;;;;5063265;28;19909;-62
2022/03/19 14:25:02;;;;;;;;;;;16.80;80.40;;;;;;5049592;28;19919;-62
2022/03/19 14:27:28;;;;;;;;;;;16.90;79.70;;;;;;5054627;28;19933;-62
2022/03/19 14:29:53;;;;;;;;;;;16.90;78.90;;;;;;5054258;28;19916;-63
2022/03/19 14:32:19;;;;;;;;;;;16.90;78.20;;;;;;5066504;28;19939;-65
2022/03/19 14:34:45;;;;;;;;;;;16.90;78.30;;;;;;5050037;28;19916;-62
2022/03/19 14:37:11;;;;;;;;;;;16.80;78.30;;;;;;5060587;28;19995;-63